createdAt,value
2023-03-18T00:00:57.737Z,0
2023-03-18T00:03:04.850Z,0
2023-03-18T00:04:08.993Z,0
2023-03-18T00:06:15.237Z,0
2023-03-18T00:08:22.531Z,0
2023-03-18T00:10:28.939Z,0
2023-03-18T00:11:31.935Z,0
2023-03-18T00:13:37.990Z,0
2023-03-18T00:15:44.523Z,0
2023-03-18T00:17:51.272Z,0
2023-03-18T00:18:54.663Z,0
2023-03-18T00:21:00.568Z,0
2023-03-18T00:23:07.478Z,0
2023-03-18T00:25:14.967Z,0
2023-03-18T00:26:17.956Z,0
2023-03-18T00:28:23.878Z,0
2023-03-18T00:30:31.014Z,0
2023-03-18T00:32:38.162Z,0
2023-03-18T00:33:41.433Z,0
2023-03-18T00:35:47.583Z,0
2023-03-18T00:37:53.180Z,0
2023-03-18T00:39:59.455Z,0
2023-03-18T00:41:03.069Z,0
2023-03-18T00:43:09.791Z,0
2023-03-18T00:45:16.489Z,0
2023-03-18T00:46:20.809Z,0
2023-03-18T00:48:27.402Z,0
2023-03-18T00:50:34.573Z,0
2023-03-18T00:52:41.093Z,0
2023-03-18T00:53:44.739Z,0
2023-03-18T00:55:51.952Z,0
2023-03-18T00:57:58.827Z,0
2023-03-18T01:00:05.088Z,0
2023-03-18T01:01:08.614Z,0
2023-03-18T01:03:15.216Z,0
2023-03-18T01:05:22.319Z,0
2023-03-18T01:06:25.421Z,0
2023-03-18T01:07:28.144Z,0
2023-03-18T01:08:31.033Z,0
2023-03-18T01:10:36.960Z,0
2023-03-18T01:12:43.871Z,0
2023-03-18T01:13:46.698Z,0
2023-03-18T01:15:52.509Z,0
2023-03-18T01:17:58.717Z,0
2023-03-18T01:20:04.696Z,0
2023-03-18T01:21:07.914Z,0
2023-03-18T01:23:13.824Z,0
2023-03-18T01:25:20.671Z,0
2023-03-18T01:27:27.796Z,0
2023-03-18T01:28:32.007Z,0
2023-03-18T01:30:39.143Z,0
2023-03-18T01:32:45.865Z,0
2023-03-18T01:34:52.708Z,0
2023-03-18T01:35:56.514Z,0
2023-03-18T01:38:01.917Z,0
2023-03-18T01:40:07.994Z,0
2023-03-18T01:42:14.460Z,0
2023-03-18T01:43:18.235Z,0
2023-03-18T01:45:25.969Z,0
2023-03-18T01:46:28.998Z,0
2023-03-18T01:48:34.124Z,0
2023-03-18T01:50:40.732Z,0
2023-03-18T01:51:44.428Z,0
2023-03-18T01:53:49.200Z,0
2023-03-18T01:55:54.879Z,0
2023-03-18T01:58:01.402Z,0
2023-03-18T01:59:05.426Z,0
2023-03-18T02:01:12.512Z,0
2023-03-18T02:03:18.134Z,0
2023-03-18T02:04:21.217Z,0
2023-03-18T02:06:27.872Z,0
2023-03-18T02:08:33.586Z,0
2023-03-18T02:10:41.111Z,0
2023-03-18T02:11:44.114Z,0
2023-03-18T02:12:47.131Z,0
2023-03-18T02:13:50.160Z,0
2023-03-18T02:15:56.732Z,0
2023-03-18T02:16:59.875Z,0
2023-03-18T02:19:06.058Z,0
2023-03-18T02:21:12.467Z,0
2023-03-18T02:22:16.475Z,0
2023-03-18T02:24:22.340Z,0
2023-03-18T02:25:25.336Z,0
2023-03-18T02:26:28.156Z,0
2023-03-18T02:27:31.849Z,0
2023-03-18T02:29:38.707Z,0
2023-03-18T02:30:41.866Z,0
2023-03-18T02:32:50.026Z,0
2023-03-18T02:34:56.099Z,0
2023-03-18T02:37:02.731Z,0
2023-03-18T02:38:06.837Z,0
2023-03-18T02:40:13.100Z,0
2023-03-18T02:42:19.574Z,0
2023-03-18T02:44:25.215Z,0
2023-03-18T02:45:28.594Z,0
2023-03-18T02:47:36.768Z,0
2023-03-18T02:49:43.189Z,0
2023-03-18T02:50:46.696Z,0
2023-03-18T02:52:52.537Z,0
2023-03-18T02:54:57.684Z,0
2023-03-18T02:56:01.058Z,0
2023-03-18T02:57:04.067Z,0
2023-03-18T02:58:07.171Z,0
2023-03-18T03:00:13.024Z,0
2023-03-18T03:01:16.140Z,0
2023-03-18T03:02:18.940Z,0
2023-03-18T03:03:24.055Z,0
2023-03-18T03:05:29.874Z,0
2023-03-18T03:06:32.976Z,0
2023-03-18T03:07:36.166Z,0
2023-03-18T03:08:38.885Z,0
2023-03-18T03:10:45.197Z,0
2023-03-18T03:12:52.019Z,0
2023-03-18T03:13:54.754Z,0
2023-03-18T03:16:02.102Z,0
2023-03-18T03:18:08.085Z,0
2023-03-18T03:20:15.020Z,0
2023-03-18T03:21:18.044Z,0
2023-03-18T03:23:23.966Z,0
2023-03-18T03:25:31.152Z,0
2023-03-18T03:27:37.589Z,0
2023-03-18T03:28:40.938Z,0
2023-03-18T03:30:46.852Z,0
2023-03-18T03:32:53.554Z,0
2023-03-18T03:35:01.137Z,0
2023-03-18T03:36:04.994Z,0
2023-03-18T03:38:10.221Z,0
2023-03-18T03:40:15.877Z,0
2023-03-18T03:42:21.970Z,0
2023-03-18T03:43:24.683Z,0
2023-03-18T03:45:31.135Z,0
2023-03-18T03:47:36.394Z,0
2023-03-18T03:49:42.994Z,0
2023-03-18T03:50:46.976Z,0
2023-03-18T03:52:53.632Z,0
2023-03-18T03:54:59.670Z,0
2023-03-18T03:57:06.008Z,0
2023-03-18T03:58:09.782Z,0
2023-03-18T04:00:15.404Z,0
2023-03-18T04:02:21.866Z,0
2023-03-18T04:04:27.987Z,0
2023-03-18T04:05:32.098Z,0
2023-03-18T04:07:37.819Z,0
2023-03-18T04:09:43.280Z,0
2023-03-18T04:11:49.457Z,0
2023-03-18T04:12:52.553Z,0
2023-03-18T04:14:58.565Z,0
2023-03-18T04:17:04.366Z,0
2023-03-18T04:19:11.760Z,0
2023-03-18T04:20:15.192Z,0
2023-03-18T04:22:22.296Z,0
2023-03-18T04:24:28.495Z,0
2023-03-18T04:26:35.383Z,0
2023-03-18T04:27:38.235Z,0
2023-03-18T04:29:44.192Z,0
2023-03-18T04:31:50.970Z,0
2023-03-18T04:33:57.929Z,0
2023-03-18T04:35:01.009Z,0
2023-03-18T04:37:07.598Z,0
2023-03-18T04:39:14.384Z,0
2023-03-18T04:41:20.225Z,0
2023-03-18T04:42:23.292Z,0
2023-03-18T04:44:29.411Z,0
2023-03-18T04:46:36.217Z,0
2023-03-18T04:48:41.405Z,0
2023-03-18T04:49:44.131Z,0
2023-03-18T04:51:51.018Z,0
2023-03-18T04:53:59.774Z,0
2023-03-18T04:56:06.591Z,0
2023-03-18T04:57:09.222Z,0
2023-03-18T04:58:12.305Z,0
2023-03-18T04:59:15.121Z,0
2023-03-18T05:01:21.580Z,0
2023-03-18T05:02:25.588Z,0
2023-03-18T05:03:29.342Z,0
2023-03-18T05:04:32.101Z,0
2023-03-18T05:06:43.384Z,0
2023-03-18T05:08:49.934Z,0
2023-03-18T05:09:53.786Z,0
2023-03-18T05:12:00.645Z,0
2023-03-18T05:14:06.767Z,0
2023-03-18T05:16:16.899Z,0
2023-03-18T05:17:20.319Z,0
2023-03-18T05:19:26.789Z,1
2023-03-18T05:21:33.762Z,1
2023-03-18T05:23:39.893Z,1
2023-03-18T05:24:43.669Z,1
2023-03-18T05:26:50.860Z,2
2023-03-18T05:28:56.244Z,2
2023-03-18T05:31:02.149Z,2
2023-03-18T05:32:05.505Z,3
2023-03-18T05:34:13.051Z,3
2023-03-18T05:36:19.433Z,4
2023-03-18T05:38:26.198Z,4
2023-03-18T05:39:29.224Z,5
2023-03-18T05:40:32.649Z,5
2023-03-18T05:41:36.493Z,5
2023-03-18T05:42:57.890Z,6
2023-03-18T05:44:00.724Z,7
2023-03-18T05:46:07.279Z,7
2023-03-18T05:47:10.728Z,7
2023-03-18T05:48:13.813Z,6
2023-03-18T05:49:16.249Z,6
2023-03-18T05:51:21.202Z,6
2023-03-18T05:52:24.558Z,6
2023-03-18T05:53:27.571Z,6
2023-03-18T05:54:30.008Z,6
2023-03-18T05:56:37.843Z,8
2023-03-18T05:57:41.634Z,8
2023-03-18T05:58:44.988Z,8
2023-03-18T05:59:48.710Z,8
2023-03-18T06:01:56.008Z,8
2023-03-18T06:02:59.479Z,9
2023-03-18T06:04:02.394Z,9
2023-03-18T06:05:06.114Z,9
2023-03-18T06:07:12.712Z,10
2023-03-18T06:09:18.785Z,10
2023-03-18T06:10:21.557Z,11
2023-03-18T06:12:29.828Z,12
2023-03-18T06:14:38.084Z,12
2023-03-18T06:16:45.799Z,13
2023-03-18T06:17:48.930Z,13
2023-03-18T06:19:55.546Z,13
2023-03-18T06:22:01.530Z,14
2023-03-18T06:24:07.818Z,13
2023-03-18T06:25:11.704Z,12
2023-03-18T06:27:17.626Z,14
2023-03-18T06:29:24.912Z,15
2023-03-18T06:31:31.371Z,17
2023-03-18T06:32:35.282Z,18
2023-03-18T06:34:41.716Z,17
2023-03-18T06:36:47.800Z,20
2023-03-18T06:38:54.313Z,20
2023-03-18T06:39:57.442Z,20
2023-03-18T06:42:04.119Z,19
2023-03-18T06:44:10.364Z,17
2023-03-18T06:46:17.362Z,22
2023-03-18T06:47:20.153Z,26
2023-03-18T06:49:25.890Z,32
2023-03-18T06:51:31.638Z,30
2023-03-18T06:53:39.074Z,32
2023-03-18T06:54:42.530Z,38
2023-03-18T06:56:48.952Z,21
2023-03-18T06:58:55.575Z,17
2023-03-18T07:01:03.008Z,20
2023-03-18T07:02:04.973Z,21
2023-03-18T07:03:07.426Z,17
2023-03-18T07:04:10.556Z,17
2023-03-18T07:06:15.488Z,31
2023-03-18T07:07:18.604Z,41
2023-03-18T07:08:22.348Z,43
2023-03-18T07:09:26.086Z,42
2023-03-18T07:11:32.226Z,46
2023-03-18T07:12:34.832Z,50
2023-03-18T07:14:40.748Z,56
2023-03-18T07:16:49.024Z,55
2023-03-18T07:18:55.198Z,56
2023-03-18T07:19:58.485Z,57
2023-03-18T07:22:04.645Z,57
2023-03-18T07:24:10.348Z,61
2023-03-18T07:26:16.946Z,64
2023-03-18T07:27:19.727Z,63
2023-03-18T07:29:25.890Z,53
2023-03-18T07:31:32.689Z,55
2023-03-18T07:33:39.809Z,66
2023-03-18T07:34:43.164Z,78
2023-03-18T07:36:49.385Z,113
2023-03-18T07:38:55.294Z,152
2023-03-18T07:41:02.052Z,119
2023-03-18T07:42:05.345Z,110
2023-03-18T07:44:11.603Z,120
2023-03-18T07:46:17.965Z,139
2023-03-18T07:48:24.889Z,144
2023-03-18T07:49:28.015Z,92
2023-03-18T07:50:31.519Z,75
2023-03-18T07:51:34.367Z,71
2023-03-18T07:53:40.534Z,88
2023-03-18T07:54:43.698Z,105
2023-03-18T07:55:46.851Z,126
2023-03-18T07:56:50.283Z,141
2023-03-18T07:58:56.894Z,293
2023-03-18T07:59:59.933Z,275
2023-03-18T08:01:02.680Z,315
2023-03-18T08:02:06.020Z,350
2023-03-18T08:04:14.600Z,367
2023-03-18T08:06:23.239Z,353
2023-03-18T08:07:26.611Z,328
2023-03-18T08:09:32.477Z,360
2023-03-18T08:11:38.950Z,319
2023-03-18T08:12:55.974Z,327
2023-03-18T08:13:59.994Z,363
2023-03-18T08:15:04.032Z,365
2023-03-18T08:17:10.993Z,406
2023-03-18T08:19:18.312Z,403
2023-03-18T08:21:24.723Z,407
2023-03-18T08:22:28.078Z,421
2023-03-18T08:24:34.471Z,416
2023-03-18T08:26:40.786Z,450
2023-03-18T08:28:47.058Z,196
2023-03-18T08:29:50.716Z,185
2023-03-18T08:31:56.851Z,189
2023-03-18T08:34:04.102Z,176
2023-03-18T08:36:10.645Z,192
2023-03-18T08:37:14.042Z,282
2023-03-18T08:39:19.303Z,290
2023-03-18T08:41:25.548Z,260
2023-03-18T08:43:31.639Z,250
2023-03-18T08:44:35.047Z,251
2023-03-18T08:46:41.531Z,230
2023-03-18T08:48:48.108Z,269
2023-03-18T08:50:57.554Z,548
2023-03-18T08:52:01.043Z,507
2023-03-18T08:53:04.143Z,328
2023-03-18T08:54:06.929Z,552
2023-03-18T08:56:14.397Z,217
2023-03-18T08:57:18.098Z,217
2023-03-18T08:58:21.845Z,313
2023-03-18T08:59:25.134Z,512
2023-03-18T09:01:31.964Z,499
2023-03-18T09:03:38.390Z,303
2023-03-18T09:04:42.118Z,327
2023-03-18T09:06:49.207Z,332
2023-03-18T09:08:56.643Z,340
2023-03-18T09:11:02.567Z,466
2023-03-18T09:12:06.261Z,636
2023-03-18T09:14:12.177Z,418
2023-03-18T09:16:19.635Z,663
2023-03-18T09:18:13.063Z,689
2023-03-18T09:19:16.665Z,528
2023-03-18T09:21:23.040Z,440
2023-03-18T09:23:29.871Z,597
2023-03-18T09:24:33.011Z,459
2023-03-18T09:25:36.533Z,477
2023-03-18T09:26:39.234Z,347
2023-03-18T09:28:45.121Z,378
2023-03-18T09:30:50.766Z,579
2023-03-18T09:31:54.082Z,444
2023-03-18T09:34:01.022Z,855
2023-03-18T09:36:07.980Z,488
2023-03-18T09:38:15.570Z,381
2023-03-18T09:39:18.565Z,217
2023-03-18T09:41:25.438Z,126
2023-03-18T09:42:28.441Z,106
2023-03-18T09:43:32.093Z,96
2023-03-18T09:44:35.526Z,99
2023-03-18T09:46:41.870Z,105
2023-03-18T09:47:45.580Z,97
2023-03-18T09:49:51.452Z,93
2023-03-18T09:50:54.837Z,97
2023-03-18T09:51:57.858Z,103
2023-03-18T09:53:01.355Z,105
2023-03-18T09:55:08.383Z,112
2023-03-18T09:56:11.115Z,118
2023-03-18T09:58:17.274Z,144
2023-03-18T10:00:23.061Z,180
2023-03-18T10:01:26.851Z,208
2023-03-18T10:03:33.385Z,230
2023-03-18T10:05:39.580Z,202
2023-03-18T10:06:42.652Z,203
2023-03-18T10:08:48.603Z,170
2023-03-18T10:10:55.760Z,164
2023-03-18T10:11:58.772Z,158
2023-03-18T10:14:05.294Z,155
2023-03-18T10:15:08.332Z,164
2023-03-18T10:17:15.148Z,180
2023-03-18T10:19:21.984Z,202
2023-03-18T10:20:24.994Z,215
2023-03-18T10:22:31.536Z,268
2023-03-18T10:23:35.204Z,284
2023-03-18T10:25:42.697Z,951
2023-03-18T10:27:48.949Z,915
2023-03-18T10:28:51.763Z,893
2023-03-18T10:30:58.633Z,927
2023-03-18T10:32:01.144Z,770
2023-03-18T10:34:08.053Z,985
2023-03-18T10:36:14.743Z,967
2023-03-18T10:37:18.107Z,573
2023-03-18T10:39:24.664Z,865
2023-03-18T10:41:32.051Z,512
2023-03-18T10:42:34.887Z,567
2023-03-18T10:43:38.160Z,441
2023-03-18T10:44:41.562Z,274
2023-03-18T10:46:48.487Z,146
2023-03-18T10:47:52.144Z,134
2023-03-18T10:49:58.340Z,95
2023-03-18T10:52:04.857Z,75
2023-03-18T10:53:07.866Z,97
2023-03-18T10:55:13.864Z,121
2023-03-18T10:57:20.745Z,88
2023-03-18T10:58:24.197Z,101
2023-03-18T11:00:30.769Z,84
2023-03-18T11:02:38.392Z,68
2023-03-18T11:03:41.296Z,60
2023-03-18T11:04:44.977Z,47
2023-03-18T11:05:47.998Z,46
2023-03-18T11:06:51.328Z,56
2023-03-18T11:07:54.319Z,58
2023-03-18T11:08:57.585Z,64
2023-03-18T11:11:05.137Z,72
2023-03-18T11:12:08.530Z,62
2023-03-18T11:14:16.088Z,68
2023-03-18T11:16:22.356Z,94
2023-03-18T11:17:25.120Z,97
2023-03-18T11:18:28.580Z,82
2023-03-18T11:19:32.047Z,76
2023-03-18T11:21:40.510Z,63
2023-03-18T11:22:43.689Z,54
2023-03-18T11:24:50.376Z,59
2023-03-18T11:26:57.430Z,58
2023-03-18T11:28:00.817Z,64
2023-03-18T11:29:04.748Z,67
2023-03-18T11:30:07.297Z,68
2023-03-18T11:32:13.412Z,77
2023-03-18T11:34:19.536Z,87
2023-03-18T11:35:23.225Z,90
2023-03-18T11:37:29.630Z,100
2023-03-18T11:39:36.865Z,116
2023-03-18T11:40:40.504Z,110
2023-03-18T11:42:46.287Z,102
2023-03-18T11:44:52.893Z,98
2023-03-18T11:47:00.126Z,146
2023-03-18T11:48:03.174Z,115
2023-03-18T11:50:09.066Z,75
2023-03-18T11:51:12.432Z,84
2023-03-18T11:53:18.984Z,104
2023-03-18T11:55:26.180Z,138
2023-03-18T11:56:29.528Z,208
2023-03-18T11:58:35.280Z,321
2023-03-18T11:59:38.381Z,230
2023-03-18T12:00:42.231Z,234
2023-03-18T12:01:45.464Z,295
2023-03-18T12:03:51.107Z,320
2023-03-18T12:04:55.329Z,356
2023-03-18T12:07:02.407Z,386
2023-03-18T12:09:08.778Z,712
2023-03-18T12:11:15.554Z,497
2023-03-18T12:12:18.257Z,872
2023-03-18T12:14:24.856Z,1000
2023-03-18T12:15:28.335Z,963
2023-03-18T12:17:35.933Z,795
2023-03-18T12:19:41.614Z,1091
2023-03-18T12:20:45.029Z,1043
2023-03-18T12:22:50.611Z,1043
2023-03-18T12:23:53.062Z,503
2023-03-18T12:24:56.131Z,476
2023-03-18T12:25:59.574Z,294
2023-03-18T12:28:05.264Z,260
2023-03-18T12:29:08.393Z,242
2023-03-18T12:31:14.367Z,229
2023-03-18T12:32:17.976Z,223
2023-03-18T12:33:21.331Z,218
2023-03-18T12:34:24.342Z,211
2023-03-18T12:36:30.569Z,217
2023-03-18T12:37:33.909Z,214
2023-03-18T12:39:40.426Z,211
2023-03-18T12:40:43.228Z,216
2023-03-18T12:42:49.058Z,217
2023-03-18T12:43:52.727Z,213
2023-03-18T12:45:59.299Z,208
2023-03-18T12:48:06.817Z,226
2023-03-18T12:49:08.689Z,246
2023-03-18T12:50:12.069Z,265
2023-03-18T12:51:15.369Z,286
2023-03-18T12:53:21.863Z,333
2023-03-18T12:54:25.324Z,307
2023-03-18T12:55:28.668Z,305
2023-03-18T12:56:32.129Z,309
2023-03-18T12:57:35.809Z,386
2023-03-18T12:58:38.861Z,327
2023-03-18T12:59:42.348Z,305
2023-03-18T13:01:48.913Z,501
2023-03-18T13:02:52.637Z,420
2023-03-18T13:04:59.779Z,276
2023-03-18T13:06:02.859Z,350
2023-03-18T13:07:06.229Z,641
2023-03-18T13:08:09.925Z,371
2023-03-18T13:10:16.055Z,218
2023-03-18T13:11:19.401Z,198
2023-03-18T13:13:26.265Z,195
2023-03-18T13:14:29.262Z,174
2023-03-18T13:16:38.874Z,329
2023-03-18T13:17:42.342Z,248
2023-03-18T13:19:49.916Z,266
2023-03-18T13:21:57.168Z,256
2023-03-18T13:23:00.589Z,235
2023-03-18T13:25:07.117Z,261
2023-03-18T13:27:13.037Z,581
2023-03-18T13:28:16.507Z,626
2023-03-18T13:30:22.294Z,638
2023-03-18T13:31:26.114Z,602
2023-03-18T13:33:32.734Z,557
2023-03-18T13:35:39.443Z,527
2023-03-18T13:36:42.667Z,518
2023-03-18T13:38:48.804Z,434
2023-03-18T13:39:51.339Z,541
2023-03-18T13:41:57.116Z,621
2023-03-18T13:44:02.158Z,561
2023-03-18T13:45:05.213Z,511
2023-03-18T13:47:11.142Z,228
2023-03-18T13:48:14.236Z,337
2023-03-18T13:50:21.482Z,468
2023-03-18T13:52:29.229Z,485
2023-03-18T13:54:35.721Z,622
2023-03-18T13:55:39.321Z,562
2023-03-18T13:57:44.577Z,439
2023-03-18T13:59:50.863Z,367
2023-03-18T14:00:53.855Z,288
2023-03-18T14:01:57.570Z,176
2023-03-18T14:03:00.361Z,224
2023-03-18T14:05:06.620Z,292
2023-03-18T14:07:13.950Z,148
2023-03-18T14:08:17.019Z,156
2023-03-18T14:10:22.893Z,232
2023-03-18T14:12:28.338Z,200
2023-03-18T14:13:32.001Z,253
2023-03-18T14:15:38.805Z,161
2023-03-18T14:16:42.030Z,351
2023-03-18T14:17:45.332Z,328
2023-03-18T14:18:48.432Z,162
2023-03-18T14:20:55.605Z,340
2023-03-18T14:21:58.602Z,331
2023-03-18T14:24:09.648Z,180
2023-03-18T14:26:15.815Z,301
2023-03-18T14:28:22.029Z,357
2023-03-18T14:29:25.166Z,326
2023-03-18T14:31:32.063Z,137
2023-03-18T14:33:38.961Z,120
2023-03-18T14:34:42.300Z,282
2023-03-18T14:36:49.079Z,311
2023-03-18T14:38:55.784Z,212
2023-03-18T14:39:58.507Z,213
2023-03-18T14:42:04.926Z,121
2023-03-18T14:44:11.496Z,174
2023-03-18T14:45:15.145Z,227
2023-03-18T14:47:41.053Z,99
2023-03-18T14:49:47.349Z,252
2023-03-18T14:51:53.572Z,164
2023-03-18T14:52:56.427Z,152
2023-03-18T14:55:03.184Z,99
2023-03-18T14:56:05.978Z,96
2023-03-18T14:58:12.037Z,117
2023-03-18T15:00:18.679Z,123
2023-03-18T15:02:24.931Z,120
2023-03-18T15:03:27.796Z,118
2023-03-18T15:05:35.731Z,120
2023-03-18T15:07:41.730Z,109
2023-03-18T15:08:50.668Z,108
2023-03-18T15:09:54.570Z,105
2023-03-18T15:10:57.902Z,103
2023-03-18T15:13:04.998Z,96
2023-03-18T15:15:11.009Z,89
2023-03-18T15:16:15.076Z,86
2023-03-18T15:18:21.133Z,78
2023-03-18T15:20:27.908Z,76
2023-03-18T15:22:34.063Z,74
2023-03-18T15:23:37.849Z,74
2023-03-18T15:25:44.451Z,74
2023-03-18T15:27:50.984Z,73
2023-03-18T15:28:53.980Z,73
2023-03-18T15:31:00.675Z,72
2023-03-18T15:33:07.084Z,72
2023-03-18T15:34:10.513Z,71
2023-03-18T15:36:17.188Z,71
2023-03-18T15:38:23.628Z,69
2023-03-18T15:39:26.164Z,68
2023-03-18T15:40:29.885Z,67
2023-03-18T15:41:33.511Z,67
2023-03-18T15:43:39.967Z,66
2023-03-18T15:44:47.005Z,66
2023-03-18T15:46:53.290Z,66
2023-03-18T15:48:59.479Z,66
2023-03-18T15:51:05.801Z,65
2023-03-18T15:52:08.890Z,64
2023-03-18T15:54:15.742Z,61
2023-03-18T15:56:22.641Z,58
2023-03-18T15:57:26.467Z,57
2023-03-18T15:59:31.901Z,55
2023-03-18T16:01:38.577Z,53
2023-03-18T16:03:44.969Z,50
2023-03-18T16:04:47.662Z,49
2023-03-18T16:06:53.563Z,48
2023-03-18T16:09:00.352Z,46
2023-03-18T16:10:03.660Z,46
2023-03-18T16:12:09.896Z,44
2023-03-18T16:14:15.887Z,43
2023-03-18T16:16:21.768Z,41
2023-03-18T16:17:24.827Z,40
2023-03-18T16:19:31.640Z,38
2023-03-18T16:21:37.812Z,36
2023-03-18T16:22:40.610Z,36
2023-03-18T16:23:44.338Z,36
2023-03-18T16:24:47.768Z,35
2023-03-18T16:26:53.212Z,34
2023-03-18T16:27:56.192Z,33
2023-03-18T16:29:00.009Z,32
2023-03-18T16:30:04.066Z,31
2023-03-18T16:32:10.176Z,30
2023-03-18T16:33:14.291Z,29
2023-03-18T16:34:18.284Z,28
2023-03-18T16:35:22.317Z,27
2023-03-18T16:37:28.931Z,27
2023-03-18T16:39:35.284Z,26
2023-03-18T16:40:38.704Z,25
2023-03-18T16:42:44.762Z,23
2023-03-18T16:44:52.081Z,21
2023-03-18T16:45:55.826Z,20
2023-03-18T16:46:58.490Z,19
2023-03-18T16:48:01.593Z,18
2023-03-18T16:50:08.565Z,17
2023-03-18T16:51:11.287Z,16
2023-03-18T16:52:14.296Z,16
2023-03-18T16:53:16.986Z,15
2023-03-18T16:55:24.058Z,14
2023-03-18T16:57:30.557Z,13
2023-03-18T16:58:33.684Z,13
2023-03-18T17:00:41.261Z,12
2023-03-18T17:02:47.902Z,10
2023-03-18T17:04:54.848Z,9
2023-03-18T17:05:57.724Z,8
2023-03-18T17:08:04.524Z,7
2023-03-18T17:10:10.166Z,6
2023-03-18T17:12:16.981Z,5
2023-03-18T17:13:19.691Z,5
2023-03-18T17:15:26.635Z,4
2023-03-18T17:17:34.420Z,3
2023-03-18T17:19:41.057Z,3
2023-03-18T17:20:44.713Z,2
2023-03-18T17:22:51.335Z,2
2023-03-18T17:24:58.023Z,1
2023-03-18T17:27:05.320Z,1
2023-03-18T17:28:08.391Z,1
2023-03-18T17:30:14.821Z,1
2023-03-18T17:32:23.019Z,0
2023-03-18T17:33:26.043Z,0
2023-03-18T17:34:28.748Z,0
2023-03-18T17:35:32.598Z,0
2023-03-18T17:37:37.973Z,0
2023-03-18T17:39:44.811Z,0
2023-03-18T17:40:48.461Z,0
2023-03-18T17:41:52.552Z,0
2023-03-18T17:42:56.209Z,0
2023-03-18T17:45:02.565Z,0
2023-03-18T17:47:10.399Z,0
2023-03-18T17:48:14.223Z,0
2023-03-18T17:50:21.110Z,0
2023-03-18T17:52:28.815Z,0
2023-03-18T17:53:32.130Z,0
2023-03-18T17:55:38.668Z,0
2023-03-18T17:57:45.695Z,0
2023-03-18T17:59:52.352Z,0
2023-03-18T18:00:55.533Z,0
2023-03-18T18:03:03.212Z,0
2023-03-18T18:05:10.088Z,0
2023-03-18T18:06:13.315Z,0
2023-03-18T18:08:20.059Z,0
2023-03-18T18:10:26.893Z,0
2023-03-18T18:11:29.724Z,0
2023-03-18T18:12:32.716Z,0
2023-03-18T18:13:36.092Z,0
2023-03-18T18:15:42.362Z,0
2023-03-18T18:16:46.383Z,0
2023-03-18T18:17:50.272Z,0
2023-03-18T18:18:53.380Z,0
2023-03-18T18:21:00.580Z,0
2023-03-18T18:23:07.105Z,0
2023-03-18T18:24:13.603Z,0
2023-03-18T18:26:20.348Z,0
2023-03-18T18:28:27.280Z,0
2023-03-18T18:30:35.742Z,0
2023-03-18T18:31:39.181Z,0
2023-03-18T18:33:45.377Z,0
2023-03-18T18:35:52.903Z,0
2023-03-18T18:37:59.039Z,0
2023-03-18T18:39:02.479Z,0
2023-03-18T18:41:09.327Z,0
2023-03-18T18:43:16.969Z,0
2023-03-18T18:45:23.349Z,0
2023-03-18T18:46:26.771Z,0
2023-03-18T18:48:33.368Z,0
2023-03-18T18:50:40.692Z,0
2023-03-18T18:52:48.558Z,0
2023-03-18T18:53:51.059Z,0
2023-03-18T18:54:54.121Z,0
2023-03-18T18:55:56.948Z,0
2023-03-18T18:58:03.490Z,0
2023-03-18T18:59:06.872Z,0
2023-03-18T19:01:14.369Z,0
2023-03-18T19:03:21.638Z,0
2023-03-18T19:05:28.367Z,0
2023-03-18T19:06:31.964Z,0
2023-03-18T19:08:39.007Z,0
2023-03-18T19:10:45.067Z,0
2023-03-18T19:11:48.223Z,0
2023-03-18T19:12:52.074Z,0
2023-03-18T19:13:55.884Z,0
2023-03-18T19:16:02.537Z,0
2023-03-18T19:17:05.610Z,0
2023-03-18T19:19:11.447Z,0
2023-03-18T19:21:16.766Z,0
2023-03-18T19:23:23.697Z,0
2023-03-18T19:24:26.712Z,0
2023-03-18T19:26:33.625Z,0
2023-03-18T19:29:01.127Z,0
2023-03-18T19:31:08.877Z,0
2023-03-18T19:32:11.595Z,0
2023-03-18T19:34:18.675Z,0
2023-03-18T19:36:25.478Z,0
2023-03-18T19:38:32.830Z,0
2023-03-18T19:39:36.192Z,0
2023-03-18T19:41:43.003Z,0
2023-03-18T19:43:48.950Z,0
2023-03-18T19:45:55.658Z,0
2023-03-18T19:46:59.233Z,0
2023-03-18T19:49:05.213Z,0
2023-03-18T19:51:12.652Z,0
2023-03-18T19:52:16.177Z,0
2023-03-18T19:53:19.919Z,0
2023-03-18T19:54:24.228Z,0
2023-03-18T19:56:29.379Z,0
2023-03-18T19:58:35.742Z,0
2023-03-18T19:59:41.850Z,0
2023-03-18T20:01:47.271Z,0
2023-03-18T20:03:52.904Z,0
2023-03-18T20:04:56.329Z,0
2023-03-18T20:07:03.790Z,0
2023-03-18T20:09:10.690Z,0
2023-03-18T20:11:18.568Z,0
2023-03-18T20:12:21.649Z,0
2023-03-18T20:14:28.357Z,0
2023-03-18T20:16:34.591Z,0
2023-03-18T20:18:41.261Z,0
2023-03-18T20:19:44.642Z,0
2023-03-18T20:21:49.630Z,0
2023-03-18T20:23:56.112Z,0
2023-03-18T20:24:59.261Z,0
2023-03-18T20:27:06.043Z,0
2023-03-18T20:29:12.048Z,0
2023-03-18T20:30:14.828Z,0
2023-03-18T20:31:18.156Z,0
2023-03-18T20:32:21.675Z,0
2023-03-18T20:34:27.781Z,0
2023-03-18T20:35:32.104Z,0
2023-03-18T20:37:38.564Z,0
2023-03-18T20:39:44.873Z,0
2023-03-18T20:40:48.816Z,0
2023-03-18T20:41:52.690Z,0
2023-03-18T20:42:55.757Z,0
2023-03-18T20:45:02.236Z,0
2023-03-18T20:46:06.577Z,0
2023-03-18T20:47:09.589Z,0
2023-03-18T20:48:12.717Z,0
2023-03-18T20:50:18.638Z,0
2023-03-18T20:51:21.743Z,0
2023-03-18T20:53:27.586Z,0
2023-03-18T20:55:36.320Z,0
2023-03-18T20:57:43.569Z,0
2023-03-18T20:58:47.292Z,0
2023-03-18T20:59:50.382Z,0
2023-03-18T21:00:54.265Z,0
2023-03-18T21:03:00.916Z,0
2023-03-18T21:04:04.736Z,0
2023-03-18T21:05:07.198Z,0
2023-03-18T21:06:10.567Z,0
2023-03-18T21:08:17.391Z,0
2023-03-18T21:09:21.586Z,0
2023-03-18T21:10:24.423Z,0
2023-03-18T21:11:28.086Z,0
2023-03-18T21:13:34.978Z,0
2023-03-18T21:14:38.404Z,0
2023-03-18T21:15:42.034Z,0
2023-03-18T21:16:45.433Z,0
2023-03-18T21:18:52.508Z,0
2023-03-18T21:19:55.513Z,0
2023-03-18T21:20:58.419Z,0
2023-03-18T21:22:01.498Z,0
2023-03-18T21:24:07.999Z,0
2023-03-18T21:25:10.794Z,0
2023-03-18T21:26:14.140Z,0
2023-03-18T21:27:17.547Z,0
2023-03-18T21:29:24.997Z,0
2023-03-18T21:30:28.819Z,0
2023-03-18T21:31:32.225Z,0
2023-03-18T21:32:35.623Z,0
2023-03-18T21:34:42.820Z,0
2023-03-18T21:35:45.773Z,0
2023-03-18T21:36:48.666Z,0
2023-03-18T21:37:51.747Z,0
2023-03-18T21:39:58.017Z,0
2023-03-18T21:41:00.856Z,0
2023-03-18T21:43:07.793Z,0
2023-03-18T21:45:14.724Z,0
2023-03-18T21:47:20.787Z,0
2023-03-18T21:48:24.406Z,0
2023-03-18T21:50:31.268Z,0
2023-03-18T21:51:41.904Z,0
2023-03-18T21:52:45.167Z,0
2023-03-18T21:53:48.141Z,0
2023-03-18T21:55:54.368Z,0
2023-03-18T21:58:00.932Z,0
2023-03-18T22:00:07.234Z,0
2023-03-18T22:01:11.366Z,0
2023-03-18T22:03:18.137Z,0
2023-03-18T22:05:24.412Z,0
2023-03-18T22:07:30.633Z,0
2023-03-18T22:08:34.350Z,0
2023-03-18T22:10:40.514Z,0
2023-03-18T22:12:47.097Z,0
2023-03-18T22:14:53.138Z,0
2023-03-18T22:15:57.372Z,0
2023-03-18T22:18:05.086Z,0
2023-03-18T22:20:10.700Z,0
2023-03-18T22:21:13.141Z,0
2023-03-18T22:23:19.200Z,0
2023-03-18T22:25:25.931Z,0
2023-03-18T22:27:32.092Z,0
2023-03-18T22:28:35.240Z,0
2023-03-18T22:30:42.089Z,0
2023-03-18T22:32:50.345Z,0
2023-03-18T22:34:57.204Z,0
2023-03-18T22:36:00.902Z,0
2023-03-18T22:38:06.637Z,0
2023-03-18T22:40:12.124Z,0
2023-03-18T22:41:14.949Z,0
2023-03-18T22:42:18.292Z,0
2023-03-18T22:43:20.814Z,0
2023-03-18T22:45:26.989Z,0
2023-03-18T22:46:30.611Z,0
2023-03-18T22:47:33.174Z,0
2023-03-18T22:48:36.981Z,0
2023-03-18T22:50:42.893Z,0
2023-03-18T22:52:48.838Z,0
2023-03-18T22:53:51.411Z,0
2023-03-18T22:54:54.216Z,0
2023-03-18T22:55:57.224Z,0
2023-03-18T22:58:03.944Z,0
2023-03-18T22:59:07.334Z,0
2023-03-18T23:00:10.329Z,0
2023-03-18T23:01:13.645Z,0
2023-03-18T23:03:20.184Z,0
2023-03-18T23:04:24.305Z,0
2023-03-18T23:05:28.067Z,0
2023-03-18T23:06:31.155Z,0
2023-03-18T23:08:36.930Z,0
2023-03-18T23:09:59.293Z,0
2023-03-18T23:11:02.525Z,0
2023-03-18T23:12:05.317Z,0
2023-03-18T23:14:10.641Z,0
2023-03-18T23:15:13.439Z,0
2023-03-18T23:16:17.277Z,0
2023-03-18T23:17:20.500Z,0
2023-03-18T23:19:28.230Z,0
2023-03-18T23:20:31.680Z,0
2023-03-18T23:22:38.584Z,0
2023-03-18T23:24:46.021Z,0
2023-03-18T23:26:52.768Z,0
2023-03-18T23:27:56.048Z,0
2023-03-18T23:30:02.728Z,0
2023-03-18T23:32:09.442Z,0
2023-03-18T23:34:16.007Z,0
2023-03-18T23:35:19.763Z,0
2023-03-18T23:37:26.125Z,0
2023-03-18T23:39:32.077Z,0
2023-03-18T23:41:38.059Z,0
2023-03-18T23:42:41.804Z,0